sensor_id;sensor_type;location;lat;lon;timestamp;P1;durP1;ratioP1;P2;durP2;ratioP2
67721;SDS011;58309;45.292;11.820;2024-02-23T00:02:19;117.35;;;48.35;;
67721;SDS011;58309;45.292;11.820;2024-02-23T00:04:45;120.00;;;48.42;;
67721;SDS011;58309;45.292;11.820;2024-02-23T00:07:11;116.10;;;46.67;;
67721;SDS011;58309;45.292;11.820;2024-02-23T00:09:37;125.75;;;48.42;;
67721;SDS011;58309;45.292;11.820;2024-02-23T00:12:02;113.70;;;46.25;;
67721;SDS011;58309;45.292;11.820;2024-02-23T00:14:29;122.15;;;48.63;;
67721;SDS011;58309;45.292;11.820;2024-02-23T00:16:56;113.63;;;46.60;;
67721;SDS011;58309;45.292;11.820;2024-02-23T00:19:22;115.07;;;47.67;;
67721;SDS011;58309;45.292;11.820;2024-02-23T00:21:49;117.30;;;46.60;;
67721;SDS011;58309;45.292;11.820;2024-02-23T00:24:15;130.82;;;48.78;;
67721;SDS011;58309;45.292;11.820;2024-02-23T00:26:42;130.48;;;49.75;;
67721;SDS011;58309;45.292;11.820;2024-02-23T00:29:08;115.00;;;47.95;;
67721;SDS011;58309;45.292;11.820;2024-02-23T00:31:34;120.05;;;47.42;;
67721;SDS011;58309;45.292;11.820;2024-02-23T00:34:01;125.28;;;48.47;;
67721;SDS011;58309;45.292;11.820;2024-02-23T00:36:26;124.05;;;49.08;;
67721;SDS011;58309;45.292;11.820;2024-02-23T00:38:52;114.18;;;47.47;;
67721;SDS011;58309;45.292;11.820;2024-02-23T00:41:17;115.97;;;46.33;;
67721;SDS011;58309;45.292;11.820;2024-02-23T00:43:43;121.95;;;47.28;;
67721;SDS011;58309;45.292;11.820;2024-02-23T00:46:08;119.93;;;46.38;;
67721;SDS011;58309;45.292;11.820;2024-02-23T00:48:34;125.65;;;48.10;;
67721;SDS011;58309;45.292;11.820;2024-02-23T00:51:01;128.82;;;48.55;;
67721;SDS011;58309;45.292;11.820;2024-02-23T00:53:28;117.30;;;45.58;;
67721;SDS011;58309;45.292;11.820;2024-02-23T00:55:53;117.82;;;47.25;;
67721;SDS011;58309;45.292;11.820;2024-02-23T00:58:19;118.45;;;49.50;;
67721;SDS011;58309;45.292;11.820;2024-02-23T01:00:44;117.63;;;45.53;;
67721;SDS011;58309;45.292;11.820;2024-02-23T01:03:10;119.80;;;46.75;;
67721;SDS011;58309;45.292;11.820;2024-02-23T01:05:36;112.07;;;46.25;;
67721;SDS011;58309;45.292;11.820;2024-02-23T01:08:02;129.68;;;51.17;;
67721;SDS011;58309;45.292;11.820;2024-02-23T01:10:28;116.00;;;45.67;;
67721;SDS011;58309;45.292;11.820;2024-02-23T01:12:53;115.38;;;47.20;;
67721;SDS011;58309;45.292;11.820;2024-02-23T01:15:19;110.50;;;45.72;;
67721;SDS011;58309;45.292;11.820;2024-02-23T01:17:44;108.93;;;44.70;;
67721;SDS011;58309;45.292;11.820;2024-02-23T01:20:10;108.55;;;45.50;;
67721;SDS011;58309;45.292;11.820;2024-02-23T01:22:36;115.90;;;45.78;;
67721;SDS011;58309;45.292;11.820;2024-02-23T01:25:02;108.05;;;44.22;;
67721;SDS011;58309;45.292;11.820;2024-02-23T01:27:28;113.93;;;47.40;;
67721;SDS011;58309;45.292;11.820;2024-02-23T01:29:54;110.43;;;45.35;;
67721;SDS011;58309;45.292;11.820;2024-02-23T01:32:19;110.15;;;43.72;;
67721;SDS011;58309;45.292;11.820;2024-02-23T01:34:45;118.93;;;47.33;;
67721;SDS011;58309;45.292;11.820;2024-02-23T01:37:10;124.00;;;48.90;;
67721;SDS011;58309;45.292;11.820;2024-02-23T01:39:36;112.20;;;44.90;;
67721;SDS011;58309;45.292;11.820;2024-02-23T01:42:02;114.10;;;45.05;;
67721;SDS011;58309;45.292;11.820;2024-02-23T01:44:28;104.28;;;43.08;;
67721;SDS011;58309;45.292;11.820;2024-02-23T01:46:53;113.05;;;46.13;;
67721;SDS011;58309;45.292;11.820;2024-02-23T01:49:18;108.30;;;44.20;;
67721;SDS011;58309;45.292;11.820;2024-02-23T01:51:45;106.55;;;43.13;;
67721;SDS011;58309;45.292;11.820;2024-02-23T01:54:11;108.30;;;43.15;;
67721;SDS011;58309;45.292;11.820;2024-02-23T01:56:36;98.18;;;40.65;;
67721;SDS011;58309;45.292;11.820;2024-02-23T01:59:04;96.57;;;40.85;;
67721;SDS011;58309;45.292;11.820;2024-02-23T02:01:31;87.05;;;39.40;;
67721;SDS011;58309;45.292;11.820;2024-02-23T02:03:57;96.28;;;40.05;;
67721;SDS011;58309;45.292;11.820;2024-02-23T02:06:23;94.40;;;40.80;;
67721;SDS011;58309;45.292;11.820;2024-02-23T02:08:49;89.93;;;40.40;;
67721;SDS011;58309;45.292;11.820;2024-02-23T02:11:15;100.45;;;42.55;;
67721;SDS011;58309;45.292;11.820;2024-02-23T02:13:41;92.50;;;39.10;;
67721;SDS011;58309;45.292;11.820;2024-02-23T02:16:06;90.93;;;39.55;;
67721;SDS011;58309;45.292;11.820;2024-02-23T02:18:32;86.53;;;38.72;;
67721;SDS011;58309;45.292;11.820;2024-02-23T02:20:57;96.05;;;40.25;;
67721;SDS011;58309;45.292;11.820;2024-02-23T02:23:24;85.95;;;37.83;;
67721;SDS011;58309;45.292;11.820;2024-02-23T02:25:54;86.97;;;38.08;;
67721;SDS011;58309;45.292;11.820;2024-02-23T02:30:47;79.32;;;36.25;;
67721;SDS011;58309;45.292;11.820;2024-02-23T02:33:14;99.28;;;40.67;;
67721;SDS011;58309;45.292;11.820;2024-02-23T02:35:39;90.38;;;39.95;;
67721;SDS011;58309;45.292;11.820;2024-02-23T02:38:04;96.72;;;40.20;;
67721;SDS011;58309;45.292;11.820;2024-02-23T02:40:30;91.72;;;38.58;;
67721;SDS011;58309;45.292;11.820;2024-02-23T02:42:56;87.20;;;37.30;;
67721;SDS011;58309;45.292;11.820;2024-02-23T02:45:22;87.43;;;37.10;;
67721;SDS011;58309;45.292;11.820;2024-02-23T02:47:48;87.72;;;36.33;;
67721;SDS011;58309;45.292;11.820;2024-02-23T02:50:14;79.55;;;35.58;;
67721;SDS011;58309;45.292;11.820;2024-02-23T02:52:40;80.00;;;35.30;;
67721;SDS011;58309;45.292;11.820;2024-02-23T02:55:05;78.53;;;33.97;;
67721;SDS011;58309;45.292;11.820;2024-02-23T02:57:31;82.97;;;36.92;;
67721;SDS011;58309;45.292;11.820;2024-02-23T02:59:57;78.82;;;34.35;;
67721;SDS011;58309;45.292;11.820;2024-02-23T03:02:22;73.72;;;33.80;;
67721;SDS011;58309;45.292;11.820;2024-02-23T03:04:48;77.68;;;34.83;;
67721;SDS011;58309;45.292;11.820;2024-02-23T03:07:14;81.20;;;35.17;;
67721;SDS011;58309;45.292;11.820;2024-02-23T03:09:41;85.10;;;37.80;;
67721;SDS011;58309;45.292;11.820;2024-02-23T03:12:06;71.72;;;33.17;;
67721;SDS011;58309;45.292;11.820;2024-02-23T03:14:32;73.28;;;32.25;;
67721;SDS011;58309;45.292;11.820;2024-02-23T03:16:59;76.13;;;32.42;;
67721;SDS011;58309;45.292;11.820;2024-02-23T03:19:25;83.82;;;35.75;;
67721;SDS011;58309;45.292;11.820;2024-02-23T03:21:51;85.72;;;34.72;;
67721;SDS011;58309;45.292;11.820;2024-02-23T03:24:16;85.45;;;35.05;;
67721;SDS011;58309;45.292;11.820;2024-02-23T03:26:42;85.85;;;36.40;;
67721;SDS011;58309;45.292;11.820;2024-02-23T03:29:08;75.53;;;33.70;;
67721;SDS011;58309;45.292;11.820;2024-02-23T03:31:34;79.72;;;35.38;;
67721;SDS011;58309;45.292;11.820;2024-02-23T03:33:59;75.45;;;33.10;;
67721;SDS011;58309;45.292;11.820;2024-02-23T03:36:25;77.55;;;32.85;;
67721;SDS011;58309;45.292;11.820;2024-02-23T03:38:51;80.60;;;34.10;;
67721;SDS011;58309;45.292;11.820;2024-02-23T03:41:17;80.10;;;33.97;;
67721;SDS011;58309;45.292;11.820;2024-02-23T03:43:43;89.93;;;35.85;;
67721;SDS011;58309;45.292;11.820;2024-02-23T03:46:08;85.10;;;33.53;;
67721;SDS011;58309;45.292;11.820;2024-02-23T03:48:33;76.95;;;33.03;;
67721;SDS011;58309;45.292;11.820;2024-02-23T03:50:59;74.70;;;32.92;;
67721;SDS011;58309;45.292;11.820;2024-02-23T03:53:25;79.20;;;32.95;;
67721;SDS011;58309;45.292;11.820;2024-02-23T03:55:50;76.93;;;32.35;;
67721;SDS011;58309;45.292;11.820;2024-02-23T03:58:16;67.75;;;31.20;;
67721;SDS011;58309;45.292;11.820;2024-02-23T04:00:42;81.43;;;34.55;;
67721;SDS011;58309;45.292;11.820;2024-02-23T04:03:08;77.40;;;34.13;;
67721;SDS011;58309;45.292;11.820;2024-02-23T04:05:34;74.05;;;32.42;;
67721;SDS011;58309;45.292;11.820;2024-02-23T04:07:59;78.63;;;32.67;;
67721;SDS011;58309;45.292;11.820;2024-02-23T04:10:25;71.72;;;32.67;;
67721;SDS011;58309;45.292;11.820;2024-02-23T04:12:50;73.03;;;31.83;;
67721;SDS011;58309;45.292;11.820;2024-02-23T04:15:16;79.53;;;33.47;;
67721;SDS011;58309;45.292;11.820;2024-02-23T04:17:42;76.15;;;32.08;;
67721;SDS011;58309;45.292;11.820;2024-02-23T04:20:08;77.10;;;33.13;;
67721;SDS011;58309;45.292;11.820;2024-02-23T04:22:37;68.68;;;30.38;;
67721;SDS011;58309;45.292;11.820;2024-02-23T04:25:03;74.53;;;32.05;;
67721;SDS011;58309;45.292;11.820;2024-02-23T04:27:30;75.22;;;31.90;;
67721;SDS011;58309;45.292;11.820;2024-02-23T04:29:55;68.50;;;31.23;;
67721;SDS011;58309;45.292;11.820;2024-02-23T04:32:21;65.28;;;31.48;;
67721;SDS011;58309;45.292;11.820;2024-02-23T04:34:46;79.30;;;33.92;;
67721;SDS011;58309;45.292;11.820;2024-02-23T04:37:11;82.53;;;32.85;;
67721;SDS011;58309;45.292;11.820;2024-02-23T04:39:37;82.57;;;33.55;;
67721;SDS011;58309;45.292;11.820;2024-02-23T04:42:03;72.80;;;32.58;;
67721;SDS011;58309;45.292;11.820;2024-02-23T04:44:29;72.10;;;30.67;;
67721;SDS011;58309;45.292;11.820;2024-02-23T04:46:55;69.63;;;32.47;;
67721;SDS011;58309;45.292;11.820;2024-02-23T04:49:20;79.22;;;30.98;;
67721;SDS011;58309;45.292;11.820;2024-02-23T04:51:46;62.33;;;29.80;;
67721;SDS011;58309;45.292;11.820;2024-02-23T04:54:11;67.47;;;29.90;;
67721;SDS011;58309;45.292;11.820;2024-02-23T04:56:37;72.30;;;30.25;;
67721;SDS011;58309;45.292;11.820;2024-02-23T04:59:02;64.88;;;28.20;;
67721;SDS011;58309;45.292;11.820;2024-02-23T05:01:28;63.45;;;30.77;;
67721;SDS011;58309;45.292;11.820;2024-02-23T05:03:53;68.25;;;30.25;;
67721;SDS011;58309;45.292;11.820;2024-02-23T05:06:19;65.47;;;29.17;;
67721;SDS011;58309;45.292;11.820;2024-02-23T05:08:45;62.30;;;28.40;;
67721;SDS011;58309;45.292;11.820;2024-02-23T05:11:10;69.38;;;29.23;;
67721;SDS011;58309;45.292;11.820;2024-02-23T05:13:35;65.90;;;28.77;;
67721;SDS011;58309;45.292;11.820;2024-02-23T05:16:02;61.90;;;27.85;;
67721;SDS011;58309;45.292;11.820;2024-02-23T05:18:28;68.00;;;31.45;;
67721;SDS011;58309;45.292;11.820;2024-02-23T05:20:54;68.45;;;30.48;;
67721;SDS011;58309;45.292;11.820;2024-02-23T05:23:19;59.92;;;28.23;;
67721;SDS011;58309;45.292;11.820;2024-02-23T05:25:45;66.47;;;28.23;;
67721;SDS011;58309;45.292;11.820;2024-02-23T05:28:10;59.85;;;28.25;;
67721;SDS011;58309;45.292;11.820;2024-02-23T05:30:35;65.78;;;28.58;;
67721;SDS011;58309;45.292;11.820;2024-02-23T05:33:01;66.22;;;29.10;;
67721;SDS011;58309;45.292;11.820;2024-02-23T05:35:28;56.80;;;25.73;;
67721;SDS011;58309;45.292;11.820;2024-02-23T05:37:54;63.13;;;27.75;;
67721;SDS011;58309;45.292;11.820;2024-02-23T05:40:20;60.05;;;27.30;;
67721;SDS011;58309;45.292;11.820;2024-02-23T05:42:46;56.30;;;25.48;;
67721;SDS011;58309;45.292;11.820;2024-02-23T05:45:12;53.45;;;25.00;;
67721;SDS011;58309;45.292;11.820;2024-02-23T05:47:40;62.15;;;27.02;;
67721;SDS011;58309;45.292;11.820;2024-02-23T05:50:07;54.22;;;25.80;;
67721;SDS011;58309;45.292;11.820;2024-02-23T05:52:34;46.92;;;24.08;;
67721;SDS011;58309;45.292;11.820;2024-02-23T05:55:01;52.25;;;24.05;;
67721;SDS011;58309;45.292;11.820;2024-02-23T05:57:27;47.65;;;24.50;;
67721;SDS011;58309;45.292;11.820;2024-02-23T05:59:53;43.83;;;23.38;;
67721;SDS011;58309;45.292;11.820;2024-02-23T06:02:18;44.63;;;22.02;;
67721;SDS011;58309;45.292;11.820;2024-02-23T06:04:44;47.30;;;22.70;;
67721;SDS011;58309;45.292;11.820;2024-02-23T06:07:10;44.13;;;23.15;;
67721;SDS011;58309;45.292;11.820;2024-02-23T06:09:35;40.72;;;21.60;;
67721;SDS011;58309;45.292;11.820;2024-02-23T06:12:01;37.83;;;19.83;;
67721;SDS011;58309;45.292;11.820;2024-02-23T06:14:26;38.42;;;20.58;;
67721;SDS011;58309;45.292;11.820;2024-02-23T06:16:52;22.10;;;11.77;;
67721;SDS011;58309;45.292;11.820;2024-02-23T06:19:17;16.52;;;7.97;;
67721;SDS011;58309;45.292;11.820;2024-02-23T06:21:43;16.17;;;6.55;;
67721;SDS011;58309;45.292;11.820;2024-02-23T06:24:12;12.77;;;5.67;;
67721;SDS011;58309;45.292;11.820;2024-02-23T06:26:37;13.45;;;6.00;;
67721;SDS011;58309;45.292;11.820;2024-02-23T06:29:03;12.02;;;5.32;;
67721;SDS011;58309;45.292;11.820;2024-02-23T06:31:28;7.95;;;4.63;;
67721;SDS011;58309;45.292;11.820;2024-02-23T06:33:54;10.68;;;4.40;;
67721;SDS011;58309;45.292;11.820;2024-02-23T06:36:20;15.02;;;4.63;;
67721;SDS011;58309;45.292;11.820;2024-02-23T06:38:45;5.85;;;3.97;;
67721;SDS011;58309;45.292;11.820;2024-02-23T06:41:11;7.53;;;3.72;;
67721;SDS011;58309;45.292;11.820;2024-02-23T06:43:37;11.20;;;3.70;;
67721;SDS011;58309;45.292;11.820;2024-02-23T06:46:09;9.77;;;4.07;;
67721;SDS011;58309;45.292;11.820;2024-02-23T06:48:35;12.48;;;4.45;;
67721;SDS011;58309;45.292;11.820;2024-02-23T06:51:02;13.02;;;4.05;;
67721;SDS011;58309;45.292;11.820;2024-02-23T06:53:28;7.22;;;3.92;;
67721;SDS011;58309;45.292;11.820;2024-02-23T06:55:54;9.60;;;4.25;;
67721;SDS011;58309;45.292;11.820;2024-02-23T06:58:20;14.07;;;4.53;;
67721;SDS011;58309;45.292;11.820;2024-02-23T07:00:45;4.55;;;3.45;;
67721;SDS011;58309;45.292;11.820;2024-02-23T07:03:11;8.77;;;4.03;;
67721;SDS011;58309;45.292;11.820;2024-02-23T07:05:37;7.80;;;4.28;;
67721;SDS011;58309;45.292;11.820;2024-02-23T07:08:02;8.05;;;3.92;;
67721;SDS011;58309;45.292;11.820;2024-02-23T07:10:28;8.38;;;3.95;;
67721;SDS011;58309;45.292;11.820;2024-02-23T07:12:53;8.15;;;4.25;;
67721;SDS011;58309;45.292;11.820;2024-02-23T07:15:21;7.82;;;4.15;;
67721;SDS011;58309;45.292;11.820;2024-02-23T07:17:46;9.25;;;3.67;;
67721;SDS011;58309;45.292;11.820;2024-02-23T07:20:12;7.85;;;3.42;;
67721;SDS011;58309;45.292;11.820;2024-02-23T07:22:38;7.20;;;3.50;;
67721;SDS011;58309;45.292;11.820;2024-02-23T07:25:04;11.77;;;3.83;;
67721;SDS011;58309;45.292;11.820;2024-02-23T07:27:30;9.63;;;4.10;;
67721;SDS011;58309;45.292;11.820;2024-02-23T07:29:56;5.95;;;3.30;;
67721;SDS011;58309;45.292;11.820;2024-02-23T07:32:22;5.70;;;2.97;;
67721;SDS011;58309;45.292;11.820;2024-02-23T07:34:48;5.55;;;3.22;;
67721;SDS011;58309;45.292;11.820;2024-02-23T07:37:14;12.52;;;3.83;;
67721;SDS011;58309;45.292;11.820;2024-02-23T07:39:40;6.78;;;3.33;;
67721;SDS011;58309;45.292;11.820;2024-02-23T07:42:05;8.90;;;3.55;;
67721;SDS011;58309;45.292;11.820;2024-02-23T07:44:33;6.97;;;3.80;;
67721;SDS011;58309;45.292;11.820;2024-02-23T07:46:58;6.65;;;3.60;;
67721;SDS011;58309;45.292;11.820;2024-02-23T07:49:24;7.38;;;3.90;;
67721;SDS011;58309;45.292;11.820;2024-02-23T07:51:50;7.45;;;3.92;;
67721;SDS011;58309;45.292;11.820;2024-02-23T07:54:15;4.78;;;3.88;;
67721;SDS011;58309;45.292;11.820;2024-02-23T07:56:41;6.72;;;4.03;;
67721;SDS011;58309;45.292;11.820;2024-02-23T07:59:07;5.55;;;3.65;;
67721;SDS011;58309;45.292;11.820;2024-02-23T08:01:33;9.70;;;3.97;;
67721;SDS011;58309;45.292;11.820;2024-02-23T08:03:59;6.28;;;3.47;;
67721;SDS011;58309;45.292;11.820;2024-02-23T08:06:24;10.10;;;4.30;;
67721;SDS011;58309;45.292;11.820;2024-02-23T08:08:50;8.25;;;3.55;;
67721;SDS011;58309;45.292;11.820;2024-02-23T08:11:18;7.03;;;3.88;;
67721;SDS011;58309;45.292;11.820;2024-02-23T08:13:44;9.00;;;3.95;;
67721;SDS011;58309;45.292;11.820;2024-02-23T08:16:09;6.03;;;3.20;;
67721;SDS011;58309;45.292;11.820;2024-02-23T08:18:35;5.18;;;3.70;;
67721;SDS011;58309;45.292;11.820;2024-02-23T08:21:01;7.70;;;4.20;;
67721;SDS011;58309;45.292;11.820;2024-02-23T08:23:28;11.18;;;4.53;;
67721;SDS011;58309;45.292;11.820;2024-02-23T08:25:55;12.18;;;3.97;;
67721;SDS011;58309;45.292;11.820;2024-02-23T08:28:22;9.48;;;4.47;;
67721;SDS011;58309;45.292;11.820;2024-02-23T08:30:48;7.72;;;4.03;;
67721;SDS011;58309;45.292;11.820;2024-02-23T08:33:13;7.00;;;4.32;;
67721;SDS011;58309;45.292;11.820;2024-02-23T08:35:39;6.93;;;3.95;;
67721;SDS011;58309;45.292;11.820;2024-02-23T08:38:05;10.40;;;4.00;;
67721;SDS011;58309;45.292;11.820;2024-02-23T08:40:30;10.05;;;4.53;;
67721;SDS011;58309;45.292;11.820;2024-02-23T08:42:56;9.95;;;4.18;;
67721;SDS011;58309;45.292;11.820;2024-02-23T08:45:21;8.70;;;3.88;;
67721;SDS011;58309;45.292;11.820;2024-02-23T08:47:47;11.80;;;4.43;;
67721;SDS011;58309;45.292;11.820;2024-02-23T08:50:12;11.55;;;4.55;;
67721;SDS011;58309;45.292;11.820;2024-02-23T08:52:39;8.77;;;4.60;;
67721;SDS011;58309;45.292;11.820;2024-02-23T08:55:05;5.65;;;4.32;;
67721;SDS011;58309;45.292;11.820;2024-02-23T08:57:30;11.05;;;4.78;;
67721;SDS011;58309;45.292;11.820;2024-02-23T08:59:56;10.90;;;4.68;;
67721;SDS011;58309;45.292;11.820;2024-02-23T09:02:24;9.85;;;4.82;;
67721;SDS011;58309;45.292;11.820;2024-02-23T09:04:50;11.63;;;5.22;;
67721;SDS011;58309;45.292;11.820;2024-02-23T09:07:16;11.07;;;4.57;;
67721;SDS011;58309;45.292;11.820;2024-02-23T09:09:45;13.65;;;4.68;;
67721;SDS011;58309;45.292;11.820;2024-02-23T09:12:10;13.95;;;5.28;;
67721;SDS011;58309;45.292;11.820;2024-02-23T09:14:36;8.10;;;4.75;;
67721;SDS011;58309;45.292;11.820;2024-02-23T09:19:33;9.60;;;4.50;;
67721;SDS011;58309;45.292;11.820;2024-02-23T09:21:59;8.48;;;4.90;;
67721;SDS011;58309;45.292;11.820;2024-02-23T09:24:25;8.70;;;4.47;;
67721;SDS011;58309;45.292;11.820;2024-02-23T09:26:51;9.20;;;4.82;;
67721;SDS011;58309;45.292;11.820;2024-02-23T09:29:18;11.25;;;4.57;;
67721;SDS011;58309;45.292;11.820;2024-02-23T09:31:43;8.38;;;4.35;;
67721;SDS011;58309;45.292;11.820;2024-02-23T09:34:09;5.90;;;4.18;;
67721;SDS011;58309;45.292;11.820;2024-02-23T09:36:34;9.40;;;4.47;;
67721;SDS011;58309;45.292;11.820;2024-02-23T09:39:00;8.27;;;4.35;;
67721;SDS011;58309;45.292;11.820;2024-02-23T09:41:27;8.38;;;4.65;;
67721;SDS011;58309;45.292;11.820;2024-02-23T09:43:52;10.75;;;5.05;;
67721;SDS011;58309;45.292;11.820;2024-02-23T09:46:23;10.73;;;4.90;;
67721;SDS011;58309;45.292;11.820;2024-02-23T09:48:51;9.10;;;5.32;;
67721;SDS011;58309;45.292;11.820;2024-02-23T09:51:17;10.68;;;5.05;;
67721;SDS011;58309;45.292;11.820;2024-02-23T09:53:43;6.18;;;4.65;;
67721;SDS011;58309;45.292;11.820;2024-02-23T09:56:09;13.93;;;5.80;;
67721;SDS011;58309;45.292;11.820;2024-02-23T09:58:39;12.15;;;6.25;;
67721;SDS011;58309;45.292;11.820;2024-02-23T10:01:06;11.48;;;5.18;;
67721;SDS011;58309;45.292;11.820;2024-02-23T10:03:32;13.27;;;5.70;;
67721;SDS011;58309;45.292;11.820;2024-02-23T10:05:57;15.55;;;5.35;;
67721;SDS011;58309;45.292;11.820;2024-02-23T10:08:23;12.45;;;5.97;;
67721;SDS011;58309;45.292;11.820;2024-02-23T10:10:49;13.10;;;6.38;;
67721;SDS011;58309;45.292;11.820;2024-02-23T10:13:18;13.93;;;6.10;;
67721;SDS011;58309;45.292;11.820;2024-02-23T10:15:49;11.38;;;6.15;;
67721;SDS011;58309;45.292;11.820;2024-02-23T10:18:15;13.05;;;6.45;;
67721;SDS011;58309;45.292;11.820;2024-02-23T10:20:40;10.25;;;5.85;;
67721;SDS011;58309;45.292;11.820;2024-02-23T10:23:07;12.43;;;6.00;;
67721;SDS011;58309;45.292;11.820;2024-02-23T10:25:34;7.55;;;5.22;;
67721;SDS011;58309;45.292;11.820;2024-02-23T10:28:01;12.52;;;6.05;;
67721;SDS011;58309;45.292;11.820;2024-02-23T10:30:27;13.57;;;6.30;;
67721;SDS011;58309;45.292;11.820;2024-02-23T10:32:53;15.00;;;5.95;;
67721;SDS011;58309;45.292;11.820;2024-02-23T10:35:21;15.52;;;5.82;;
67721;SDS011;58309;45.292;11.820;2024-02-23T10:37:48;11.15;;;6.10;;
67721;SDS011;58309;45.292;11.820;2024-02-23T10:40:18;12.48;;;6.82;;
67721;SDS011;58309;45.292;11.820;2024-02-23T10:42:45;17.38;;;7.28;;
67721;SDS011;58309;45.292;11.820;2024-02-23T10:45:16;13.45;;;6.68;;
67721;SDS011;58309;45.292;11.820;2024-02-23T10:47:45;13.85;;;6.90;;
67721;SDS011;58309;45.292;11.820;2024-02-23T10:52:43;15.40;;;9.35;;
67721;SDS011;58309;45.292;11.820;2024-02-23T10:55:09;20.10;;;11.63;;
67721;SDS011;58309;45.292;11.820;2024-02-23T10:57:35;14.75;;;9.88;;
67721;SDS011;58309;45.292;11.820;2024-02-23T11:00:02;17.48;;;9.68;;
67721;SDS011;58309;45.292;11.820;2024-02-23T11:02:35;17.45;;;9.73;;
67721;SDS011;58309;45.292;11.820;2024-02-23T11:05:05;28.23;;;17.48;;
67721;SDS011;58309;45.292;11.820;2024-02-23T11:07:37;21.30;;;9.93;;
67721;SDS011;58309;45.292;11.820;2024-02-23T11:10:04;17.80;;;9.87;;
67721;SDS011;58309;45.292;11.820;2024-02-23T11:12:30;19.17;;;10.82;;
67721;SDS011;58309;45.292;11.820;2024-02-23T11:14:56;21.05;;;9.40;;
67721;SDS011;58309;45.292;11.820;2024-02-23T11:17:29;16.13;;;9.07;;
67721;SDS011;58309;45.292;11.820;2024-02-23T11:19:56;17.10;;;9.82;;
67721;SDS011;58309;45.292;11.820;2024-02-23T11:22:32;19.95;;;9.48;;
67721;SDS011;58309;45.292;11.820;2024-02-23T11:25:00;22.40;;;9.88;;
67721;SDS011;58309;45.292;11.820;2024-02-23T11:27:32;18.17;;;9.70;;
67721;SDS011;58309;45.292;11.820;2024-02-23T11:29:59;15.75;;;10.40;;
67721;SDS011;58309;45.292;11.820;2024-02-23T11:32:35;16.48;;;10.52;;
67721;SDS011;58309;45.292;11.820;2024-02-23T11:35:06;14.90;;;10.38;;
67721;SDS011;58309;45.292;11.820;2024-02-23T11:37:43;19.33;;;11.73;;
67721;SDS011;58309;45.292;11.820;2024-02-23T11:40:13;19.80;;;11.30;;
67721;SDS011;58309;45.292;11.820;2024-02-23T11:42:40;14.43;;;10.57;;
67721;SDS011;58309;45.292;11.820;2024-02-23T11:45:06;17.02;;;10.85;;
67721;SDS011;58309;45.292;11.820;2024-02-23T11:47:32;13.57;;;10.02;;
67721;SDS011;58309;45.292;11.820;2024-02-23T11:49:58;15.95;;;10.30;;
67721;SDS011;58309;45.292;11.820;2024-02-23T11:52:23;14.85;;;10.25;;
67721;SDS011;58309;45.292;11.820;2024-02-23T11:54:49;17.95;;;10.70;;
67721;SDS011;58309;45.292;11.820;2024-02-23T11:57:14;19.13;;;12.60;;
67721;SDS011;58309;45.292;11.820;2024-02-23T11:59:40;22.30;;;13.30;;
67721;SDS011;58309;45.292;11.820;2024-02-23T12:02:06;18.30;;;13.02;;
67721;SDS011;58309;45.292;11.820;2024-02-23T12:04:32;18.70;;;12.00;;
67721;SDS011;58309;45.292;11.820;2024-02-23T12:06:58;23.38;;;13.00;;
67721;SDS011;58309;45.292;11.820;2024-02-23T12:09:24;22.88;;;11.98;;
67721;SDS011;58309;45.292;11.820;2024-02-23T12:11:50;19.80;;;13.75;;
67721;SDS011;58309;45.292;11.820;2024-02-23T12:14:15;20.13;;;13.13;;
67721;SDS011;58309;45.292;11.820;2024-02-23T12:16:41;17.58;;;12.68;;
67721;SDS011;58309;45.292;11.820;2024-02-23T12:19:07;26.02;;;18.95;;
67721;SDS011;58309;45.292;11.820;2024-02-23T12:21:34;22.98;;;14.75;;
67721;SDS011;58309;45.292;11.820;2024-02-23T12:24:03;22.42;;;15.48;;
67721;SDS011;58309;45.292;11.820;2024-02-23T12:26:30;24.03;;;15.90;;
67721;SDS011;58309;45.292;11.820;2024-02-23T12:29:00;23.48;;;15.80;;
67721;SDS011;58309;45.292;11.820;2024-02-23T12:31:28;27.83;;;16.25;;
67721;SDS011;58309;45.292;11.820;2024-02-23T12:33:57;32.28;;;19.73;;
67721;SDS011;58309;45.292;11.820;2024-02-23T12:36:23;34.15;;;21.30;;
67721;SDS011;58309;45.292;11.820;2024-02-23T12:38:48;35.15;;;21.35;;
67721;SDS011;58309;45.292;11.820;2024-02-23T12:41:14;32.90;;;20.38;;
67721;SDS011;58309;45.292;11.820;2024-02-23T12:43:40;43.00;;;24.10;;
67721;SDS011;58309;45.292;11.820;2024-02-23T12:46:05;29.33;;;16.58;;
67721;SDS011;58309;45.292;11.820;2024-02-23T12:48:33;29.85;;;18.63;;
67721;SDS011;58309;45.292;11.820;2024-02-23T12:50:59;25.33;;;17.08;;
67721;SDS011;58309;45.292;11.820;2024-02-23T12:53:38;26.33;;;16.17;;
67721;SDS011;58309;45.292;11.820;2024-02-23T12:56:08;32.92;;;19.27;;
67721;SDS011;58309;45.292;11.820;2024-02-23T12:58:36;23.90;;;15.88;;
67721;SDS011;58309;45.292;11.820;2024-02-23T13:01:03;26.30;;;18.73;;
67721;SDS011;58309;45.292;11.820;2024-02-23T13:03:29;24.27;;;15.43;;
67721;SDS011;58309;45.292;11.820;2024-02-23T13:05:55;25.15;;;17.38;;
67721;SDS011;58309;45.292;11.820;2024-02-23T13:08:23;24.88;;;17.48;;
67721;SDS011;58309;45.292;11.820;2024-02-23T13:10:53;23.25;;;15.13;;
67721;SDS011;58309;45.292;11.820;2024-02-23T13:13:19;31.23;;;19.20;;
67721;SDS011;58309;45.292;11.820;2024-02-23T13:15:46;31.52;;;20.10;;
67721;SDS011;58309;45.292;11.820;2024-02-23T13:18:13;31.17;;;19.20;;
67721;SDS011;58309;45.292;11.820;2024-02-23T13:20:39;32.50;;;20.52;;
67721;SDS011;58309;45.292;11.820;2024-02-23T13:23:06;26.75;;;17.48;;
67721;SDS011;58309;45.292;11.820;2024-02-23T13:25:33;27.52;;;17.73;;
67721;SDS011;58309;45.292;11.820;2024-02-23T13:28:00;27.70;;;18.73;;
67721;SDS011;58309;45.292;11.820;2024-02-23T13:30:25;26.55;;;17.98;;
67721;SDS011;58309;45.292;11.820;2024-02-23T13:32:51;29.52;;;18.13;;
67721;SDS011;58309;45.292;11.820;2024-02-23T13:35:17;26.50;;;18.50;;
67721;SDS011;58309;45.292;11.820;2024-02-23T13:37:43;28.52;;;18.08;;
67721;SDS011;58309;45.292;11.820;2024-02-23T13:40:09;31.88;;;19.10;;
67721;SDS011;58309;45.292;11.820;2024-02-23T13:42:37;33.00;;;19.23;;
67721;SDS011;58309;45.292;11.820;2024-02-23T13:45:06;30.17;;;18.88;;
67721;SDS011;58309;45.292;11.820;2024-02-23T13:47:33;31.95;;;21.27;;
67721;SDS011;58309;45.292;11.820;2024-02-23T13:49:59;30.50;;;19.98;;
67721;SDS011;58309;45.292;11.820;2024-02-23T13:52:25;32.90;;;20.00;;
67721;SDS011;58309;45.292;11.820;2024-02-23T13:54:51;34.30;;;21.70;;
67721;SDS011;58309;45.292;11.820;2024-02-23T13:57:16;28.95;;;20.17;;
67721;SDS011;58309;45.292;11.820;2024-02-23T13:59:42;37.53;;;23.23;;
67721;SDS011;58309;45.292;11.820;2024-02-23T14:02:08;35.88;;;19.70;;
67721;SDS011;58309;45.292;11.820;2024-02-23T14:04:34;35.65;;;23.13;;
67721;SDS011;58309;45.292;11.820;2024-02-23T14:07:00;37.47;;;23.02;;
67721;SDS011;58309;45.292;11.820;2024-02-23T14:09:26;35.72;;;21.35;;
67721;SDS011;58309;45.292;11.820;2024-02-23T14:11:51;26.42;;;18.10;;
67721;SDS011;58309;45.292;11.820;2024-02-23T14:14:17;32.80;;;19.10;;
67721;SDS011;58309;45.292;11.820;2024-02-23T14:16:43;29.30;;;20.88;;